Time;durP1;ratioP1;P1;durP2;ratioP2;P2;SDS_P1;SDS_P2;PMS_P1;PMS_P2;Temp;Humidity;BMP_temperature;BMP_pressure;BME280_temperature;BME280_humidity;BME280_pressure;Samples;Min_cycle;Max_cycle;Signal;HPM_P1;HPM_P2
2023/01/17 00:01:07;;;;;;;;;;;;;;;21.12;27.67;96943.19;5073283;28;1015;-72
2023/01/17 00:03:33;;;;;;;;;;;;;;;20.97;27.91;96937.34;5073439;28;916;-73
2023/01/17 00:11:26;;;;;;;;;;;;;;;21.03;28.01;96935.47;5073469;28;1976;-73
2023/01/17 00:13:52;;;;;;;;;;;;;;;21.09;27.95;96932.84;5073274;28;1179;-74
2023/01/17 00:16:17;;;;;;;;;;;;;;;21.22;27.90;96935.53;5040083;28;1007;-74
2023/01/17 00:26:01;;;;;;;;;;;;;;;20.89;28.47;96929.63;5073585;28;1077;-74
2023/01/17 01:33:37;;;;;;;;;;;;;;;21.38;27.17;96932.44;5078533;28;949;-73
2023/01/17 01:36:02;;;;;;;;;;;;;;;20.94;27.76;96923.38;5078804;28;894;-73
2023/01/17 01:38:28;;;;;;;;;;;;;;;20.75;28.13;96934.59;5078421;28;946;-73
2023/01/17 01:40:54;;;;;;;;;;;;;;;21.14;27.96;96937.88;5077525;28;974;-73
2023/01/17 01:43:21;;;;;;;;;;;;;;;21.43;27.17;96923.31;5078398;28;965;-73
2023/01/17 01:45:48;;;;;;;;;;;;;;;21.30;27.39;96908.56;5077756;28;965;-73
2023/01/17 01:48:13;;;;;;;;;;;;;;;21.39;27.13;96910.59;5060404;28;916;-74
2023/01/17 01:50:39;;;;;;;;;;;;;;;21.04;27.59;96920.09;5078223;28;1905;-72
2023/01/17 01:53:04;;;;;;;;;;;;;;;20.94;27.74;96906.41;5077442;28;1009;-73
2023/01/17 01:55:33;;;;;;;;;;;;;;;20.81;27.92;96907.28;5058580;28;962;-73
2023/01/17 01:58:01;;;;;;;;;;;;;;;21.17;27.71;96902.19;5058991;28;1046;-74
2023/01/17 02:00:28;;;;;;;;;;;;;;;21.18;27.71;96895.28;5075831;28;994;-74
2023/01/17 02:02:54;;;;;;;;;;;;;;;21.44;27.10;96892.97;5059488;28;972;-73
2023/01/17 02:05:20;;;;;;;;;;;;;;;21.30;27.35;96900.84;5058772;28;957;-74
2023/01/17 02:07:50;;;;;;;;;;;;;;;20.94;27.65;96903.56;5059050;28;1268;-73
2023/01/17 02:10:15;;;;;;;;;;;;;;;20.69;28.15;96896.88;5058688;28;1957;-73
2023/01/17 02:12:41;;;;;;;;;;;;;;;20.78;28.53;96902.56;5075557;28;908;-73
2023/01/17 02:15:06;;;;;;;;;;;;;;;21.41;27.02;96871.31;5059028;28;1036;-73
2023/01/17 02:17:41;;;;;;;;;;;;;;;21.32;27.50;96866.41;5058786;28;1072;-73
2023/01/17 02:20:25;;;;;;;;;;;;;;;21.34;27.18;96878.03;5075150;28;1016;-74
2023/01/17 02:23:08;;;;;;;;;;;;;;;20.99;27.89;96877.50;5075286;28;1019;-73
2023/01/17 02:25:34;;;;;;;;;;;;;;;20.80;28.09;96887.97;5075283;28;964;-73
2023/01/17 02:28:18;;;;;;;;;;;;;;;20.53;28.49;96883.00;5077358;28;1025;-73
2023/01/17 02:30:45;;;;;;;;;;;;;;;20.88;28.19;96868.66;5076313;28;1964;-72
2023/01/17 02:33:29;;;;;;;;;;;;;;;21.11;27.84;96853.94;5059408;28;1018;-73
2023/01/17 02:36:04;;;;;;;;;;;;;;;21.29;27.27;96848.28;5077093;28;912;-74
2023/01/17 02:38:30;;;;;;;;;;;;;;;21.04;27.51;96835.25;5077272;28;962;-73
2023/01/17 02:41:06;;;;;;;;;;;;;;;21.01;27.84;96836.19;5077343;28;1059;-74
2023/01/17 02:43:32;;;;;;;;;;;;;;;20.79;28.32;96822.16;5076216;28;975;-73
2023/01/17 02:45:57;;;;;;;;;;;;;;;21.25;27.36;96813.72;5075746;28;898;-73
2023/01/17 02:48:23;;;;;;;;;;;;;;;21.29;27.23;96816.38;5077531;28;905;-73
2023/01/17 02:50:51;;;;;;;;;;;;;;;21.17;27.48;96803.97;5076096;28;1905;-73
2023/01/17 02:53:20;;;;;;;;;;;;;;;21.00;27.50;96814.03;5076411;28;943;-74
2023/01/17 02:55:45;;;;;;;;;;;;;;;20.84;27.84;96819.97;5076916;28;943;-73
2023/01/17 02:58:18;;;;;;;;;;;;;;;20.67;28.12;96817.41;5077049;28;931;-73
2023/01/17 03:00:46;;;;;;;;;;;;;;;21.37;27.28;96828.22;5075625;28;966;-74
2023/01/17 03:03:12;;;;;;;;;;;;;;;21.24;27.30;96815.00;5077203;28;1014;-73
2023/01/17 03:05:54;;;;;;;;;;;;;;;21.44;27.00;96816.56;5077044;28;954;-73
2023/01/17 03:08:19;;;;;;;;;;;;;;;20.90;27.74;96818.88;5074307;28;1071;-72
2023/01/17 03:10:45;;;;;;;;;;;;;;;20.65;27.99;96819.91;5075229;28;1975;-73
2023/01/17 03:13:10;;;;;;;;;;;;;;;20.62;28.46;96817.25;5058456;28;957;-73
2023/01/17 03:15:35;;;;;;;;;;;;;;;20.99;27.70;96818.13;5076849;28;982;-73
2023/01/17 03:18:03;;;;;;;;;;;;;;;21.18;27.40;96811.19;5076235;28;856;-73
2023/01/17 03:20:28;;;;;;;;;;;;;;;21.35;27.26;96808.09;5076586;28;1016;-74
2023/01/17 03:22:54;;;;;;;;;;;;;;;21.01;27.53;96807.13;5076267;28;972;-73
2023/01/17 03:25:19;;;;;;;;;;;;;;;20.93;27.80;96800.97;5076517;28;1022;-72
2023/01/17 03:27:44;;;;;;;;;;;;;;;20.54;28.46;96813.94;5076364;28;1012;-74
2023/01/17 03:30:10;;;;;;;;;;;;;;;20.50;28.58;96824.59;5076376;28;1910;-74
2023/01/17 03:32:36;;;;;;;;;;;;;;;20.93;28.07;96811.50;5075264;28;951;-73
2023/01/17 03:35:01;;;;;;;;;;;;;;;21.15;27.53;96820.66;5076449;28;941;-73
2023/01/17 03:37:27;;;;;;;;;;;;;;;21.46;26.86;96814.06;5076019;28;923;-73
2023/01/17 03:39:52;;;;;;;;;;;;;;;20.98;27.46;96803.16;5076340;28;967;-73
2023/01/17 03:42:17;;;;;;;;;;;;;;;20.81;27.67;96808.34;5075076;28;956;-73
2023/01/17 03:44:43;;;;;;;;;;;;;;;20.66;28.19;96803.75;5075877;28;996;-74
2023/01/17 03:47:11;;;;;;;;;;;;;;;21.11;27.67;96811.53;5076152;28;993;-74
2023/01/17 03:49:37;;;;;;;;;;;;;;;21.16;27.54;96805.25;5076166;28;1004;-73
2023/01/17 03:52:03;;;;;;;;;;;;;;;21.30;27.12;96806.69;5076011;28;1922;-73
2023/01/17 03:54:28;;;;;;;;;;;;;;;21.04;27.31;96806.19;5075930;28;962;-72
2023/01/17 03:56:54;;;;;;;;;;;;;;;20.98;27.35;96805.22;5075926;28;954;-73
2023/01/17 03:59:19;;;;;;;;;;;;;;;20.80;27.87;96798.28;5076391;28;965;-73
2023/01/17 04:01:44;;;;;;;;;;;;;;;20.77;27.85;96787.91;5075915;28;918;-73
2023/01/17 04:04:10;;;;;;;;;;;;;;;20.92;27.63;96799.41;5075006;28;923;-74
2023/01/17 04:06:35;;;;;;;;;;;;;;;21.21;27.13;96812.31;5091527;28;1514;-74
2023/01/17 04:09:01;;;;;;;;;;;;;;;21.06;27.49;96831.94;5076189;28;1011;-73
2023/01/17 04:11:26;;;;;;;;;;;;;;;21.27;26.95;96831.00;5075765;28;1905;-72
2023/01/17 04:13:52;;;;;;;;;;;;;;;20.90;27.63;96835.84;5075851;28;989;-73
2023/01/17 04:16:18;;;;;;;;;;;;;;;20.86;27.72;96828.78;5075814;28;920;-73
2023/01/17 04:18:43;;;;;;;;;;;;;;;20.78;28.16;96829.06;5075631;28;936;-73
2023/01/17 04:21:09;;;;;;;;;;;;;;;21.28;27.43;96829.75;5076047;28;952;-72
2023/01/17 04:23:34;;;;;;;;;;;;;;;21.39;27.13;96831.34;5075790;28;950;-73
2023/01/17 04:26:00;;;;;;;;;;;;;;;21.58;26.59;96833.72;5075799;28;991;-73
2023/01/17 04:28:25;;;;;;;;;;;;;;;21.13;27.22;96831.63;5075729;28;1025;-74
2023/01/17 04:30:51;;;;;;;;;;;;;;;20.84;27.63;96842.59;5075784;28;1914;-73
2023/01/17 04:33:16;;;;;;;;;;;;;;;20.80;27.91;96843.53;5056729;28;1129;-73
2023/01/17 04:35:42;;;;;;;;;;;;;;;21.17;27.71;96837.91;5055955;28;1213;-74
2023/01/17 04:38:07;;;;;;;;;;;;;;;21.22;27.30;96840.13;5075594;28;1188;-74
2023/01/17 04:40:33;;;;;;;;;;;;;;;21.13;27.65;96842.16;5074613;28;1680;-75
2023/01/17 04:42:58;;;;;;;;;;;;;;;21.14;27.53;96847.38;5074455;28;1403;-74
2023/01/17 04:45:24;;;;;;;;;;;;;;;20.83;27.96;96858.78;5074730;28;1845;-74
2023/01/17 04:47:49;;;;;;;;;;;;;;;20.88;27.95;96854.53;5075303;28;937;-74
2023/01/17 04:50:14;;;;;;;;;;;;;;;21.06;27.72;96851.75;5075113;28;1982;-74
2023/01/17 04:52:40;;;;;;;;;;;;;;;20.89;27.86;96856.13;5075428;28;891;-74
2023/01/17 04:55:05;;;;;;;;;;;;;;;21.14;27.58;96844.53;5075589;28;941;-74
2023/01/17 04:57:31;;;;;;;;;;;;;;;21.14;27.47;96853.03;5074979;28;1065;-74
2023/01/17 04:59:56;;;;;;;;;;;;;;;20.91;27.76;96864.91;5074933;28;1517;-74
2023/01/17 05:02:22;;;;;;;;;;;;;;;20.86;27.91;96855.00;5075232;28;1138;-74
2023/01/17 05:04:47;;;;;;;;;;;;;;;21.08;27.67;96854.88;5075152;28;1287;-74
2023/01/17 05:07:13;;;;;;;;;;;;;;;21.38;27.39;96864.53;5075104;28;1051;-74
2023/01/17 05:09:38;;;;;;;;;;;;;;;21.23;27.32;96875.63;5075716;28;1119;-74
2023/01/17 05:12:04;;;;;;;;;;;;;;;21.18;27.39;96867.00;5074509;28;1903;-75
2023/01/17 05:14:30;;;;;;;;;;;;;;;20.93;28.00;96863.16;5075226;28;961;-75
2023/01/17 05:16:56;;;;;;;;;;;;;;;20.83;28.08;96852.31;5078471;28;957;-74
2023/01/17 05:19:21;;;;;;;;;;;;;;;20.72;28.11;96855.56;5078827;28;956;-75
2023/01/17 05:21:47;;;;;;;;;;;;;;;21.13;27.55;96847.81;5073947;28;1648;-74
2023/01/17 05:24:12;;;;;;;;;;;;;;;21.13;27.55;96837.28;5077853;28;1942;-74
2023/01/17 05:26:39;;;;;;;;;;;;;;;21.32;27.54;96844.56;5078223;28;1527;-74
2023/01/17 05:29:05;;;;;;;;;;;;;;;21.43;27.00;96840.47;5078992;28;832;-74
2023/01/17 05:31:30;;;;;;;;;;;;;;;21.35;27.17;96836.38;5075812;28;1980;-74
2023/01/17 05:33:55;;;;;;;;;;;;;;;20.96;27.63;96836.00;5078638;28;1957;-74
2023/01/17 05:36:21;;;;;;;;;;;;;;;20.78;28.08;96848.88;5077302;28;1307;-74
2023/01/17 05:38:46;;;;;;;;;;;;;;;20.80;28.42;96866.13;5078754;28;905;-74
2023/01/17 05:41:12;;;;;;;;;;;;;;;21.08;27.74;96883.94;5076999;28;973;-75
2023/01/17 05:43:37;;;;;;;;;;;;;;;21.29;27.54;96878.63;5078499;28;880;-74
2023/01/17 05:46:02;;;;;;;;;;;;;;;21.16;27.71;96884.44;5078589;28;953;-74
2023/01/17 05:48:28;;;;;;;;;;;;;;;20.94;27.80;96886.59;5077820;28;1552;-75
2023/01/17 05:50:53;;;;;;;;;;;;;;;20.99;27.73;96894.47;5078674;28;1906;-74
2023/01/17 05:53:19;;;;;;;;;;;;;;;20.85;28.37;96897.88;5078112;28;877;-74
2023/01/17 05:55:44;;;;;;;;;;;;;;;21.17;27.71;96899.38;5059052;28;989;-75
2023/01/17 05:58:14;;;;;;;;;;;;;;;21.24;27.52;96885.72;5078386;28;889;-74
2023/01/17 06:00:39;;;;;;;;;;;;;;;21.35;27.67;96898.63;5041713;28;1539;-74
2023/01/17 06:03:05;;;;;;;;;;;;;;;21.14;27.42;96898.28;5073383;28;1523;-75
2023/01/17 06:05:30;;;;;;;;;;;;;;;20.05;27.65;96760.97;5058877;28;1811;-75
2023/01/17 06:07:56;;;;;;;;;;;;;;;20.81;27.73;96912.94;5077551;28;1797;-75
2023/01/17 06:10:23;;;;;;;;;;;;;;;21.10;28.11;96894.81;5078011;28;1914;-74
2023/01/17 06:12:48;;;;;;;;;;;;;;;21.13;27.92;96893.84;5076811;28;1127;-74
2023/01/17 06:15:14;;;;;;;;;;;;;;;21.17;27.61;96894.50;5077044;28;1050;-74
2023/01/17 06:17:40;;;;;;;;;;;;;;;21.30;27.42;96886.69;5076904;28;912;-74
2023/01/17 06:20:05;;;;;;;;;;;;;;;20.99;27.84;96888.81;5075513;28;1631;-74
2023/01/17 06:22:31;;;;;;;;;;;;;;;20.63;28.25;96873.31;5093661;28;1103;-74
2023/01/17 06:24:57;;;;;;;;;;;;;;;20.77;28.47;96878.38;5077329;28;930;-74
2023/01/17 06:27:22;;;;;;;;;;;;;;;20.96;28.19;96884.88;5076844;28;851;-75
2023/01/17 06:29:48;;;;;;;;;;;;;;;21.28;27.63;96894.81;5077319;28;976;-74
2023/01/17 06:32:13;;;;;;;;;;;;;;;21.50;27.21;96899.59;5077570;28;1971;-75
2023/01/17 06:34:39;;;;;;;;;;;;;;;21.04;27.72;96908.78;5077249;28;916;-74
2023/01/17 06:37:04;;;;;;;;;;;;;;;20.80;28.16;96911.38;5076764;28;1608;-74
2023/01/17 06:39:30;;;;;;;;;;;;;;;20.80;28.26;96925.50;5077420;28;990;-74
2023/01/17 06:41:55;;;;;;;;;;;;;;;20.96;28.31;96926.50;5077394;28;912;-74
2023/01/17 06:44:21;;;;;;;;;;;;;;;21.42;27.44;96923.81;5076204;28;1634;-74
2023/01/17 06:46:46;;;;;;;;;;;;;;;21.37;27.46;96930.88;5077188;28;963;-74
2023/01/17 06:49:12;;;;;;;;;;;;;;;21.13;27.93;96933.44;5077217;28;1814;-74
2023/01/17 06:51:38;;;;;;;;;;;;;;;20.90;28.17;96934.03;5077101;28;1979;-75
2023/01/17 06:54:03;;;;;;;;;;;;;;;20.71;28.47;96931.13;5074478;28;963;-74
2023/01/17 06:56:30;;;;;;;;;;;;;;;21.10;28.18;96940.06;5077075;28;1130;-75
2023/01/17 06:58:55;;;;;;;;;;;;;;;21.24;27.77;96930.16;5077162;28;853;-74
2023/01/17 07:01:21;;;;;;;;;;;;;;;21.27;27.83;96924.38;5076798;28;1867;-74
2023/01/17 07:03:46;;;;;;;;;;;;;;;20.97;27.95;96922.41;5076923;28;1022;-74
2023/01/17 07:06:11;;;;;;;;;;;;;;;20.95;28.10;96917.22;5076906;28;986;-74
2023/01/17 07:08:37;;;;;;;;;;;;;;;20.79;28.29;96906.97;5077105;28;1239;-74
2023/01/17 07:11:03;;;;;;;;;;;;;;;20.94;28.74;96914.88;5050831;28;1898;-74
2023/01/17 07:13:28;;;;;;;;;;;;;;;21.00;28.20;96910.19;5055561;28;913;-75
2023/01/17 07:15:53;;;;;;;;;;;;;;;21.34;27.89;96903.50;5056553;28;1086;-75
2023/01/17 07:18:22;;;;;;;;;;;;;;;21.28;28.01;96911.78;5056587;28;921;-75
2023/01/17 07:20:48;;;;;;;;;;;;;;;20.88;28.32;96916.72;5066354;28;980;-74
2023/01/17 07:23:13;;;;;;;;;;;;;;;20.79;28.63;96923.94;5076616;28;941;-74
2023/01/17 07:25:38;;;;;;;;;;;;;;;21.04;27.99;96913.66;5076514;28;937;-74
2023/01/17 07:28:04;;;;;;;;;;;;;;;21.14;28.16;96912.41;5076439;28;1061;-74
2023/01/17 07:30:29;;;;;;;;;;;;;;;21.15;28.10;96925.31;5076356;28;1974;-75
2023/01/17 07:32:55;;;;;;;;;;;;;;;21.19;28.14;96930.78;5075565;28;1547;-74
2023/01/17 07:35:22;;;;;;;;;;;;;;;20.92;28.27;96945.66;5076171;28;969;-74
2023/01/17 07:37:48;;;;;;;;;;;;;;;20.71;28.63;96933.94;5076328;28;1027;-75
2023/01/17 07:40:16;;;;;;;;;;;;;;;21.00;28.17;96932.81;5074416;28;1620;-74
2023/01/17 07:42:41;;;;;;;;;;;;;;;20.94;28.65;96929.81;5075417;28;951;-74
2023/01/17 07:45:07;;;;;;;;;;;;;;;21.02;28.41;96933.13;5076001;28;927;-74
2023/01/17 07:47:32;;;;;;;;;;;;;;;21.31;28.02;96939.19;5075998;28;989;-75
2023/01/17 07:50:00;;;;;;;;;;;;;;;20.88;28.34;96936.50;5075973;28;1159;-74
2023/01/17 07:52:25;;;;;;;;;;;;;;;20.63;28.74;96934.72;5074685;28;1922;-75
2023/01/17 07:54:51;;;;;;;;;;;;;;;20.37;29.21;96934.06;5075687;28;1516;-75
2023/01/17 07:57:16;;;;;;;;;;;;;;;20.91;28.64;96938.41;5072777;28;1495;-76
2023/01/17 07:59:42;;;;;;;;;;;;;;;20.87;28.45;96937.78;5072299;28;1757;-74
2023/01/17 08:02:12;;;;;;;;;;;;;;;21.31;27.99;96927.88;5072888;28;1470;-74
2023/01/17 08:04:37;;;;;;;;;;;;;;;21.43;27.89;96928.19;5056809;28;1040;-75
2023/01/17 08:07:02;;;;;;;;;;;;;;;20.91;28.22;96938.41;5073335;28;1028;-75
2023/01/17 08:09:28;;;;;;;;;;;;;;;20.94;28.34;96929.03;5073184;28;1148;-74
2023/01/17 08:11:53;;;;;;;;;;;;;;;20.61;29.04;96915.38;5073533;28;1984;-75
2023/01/17 08:14:19;;;;;;;;;;;;;;;20.90;28.65;96920.69;5073011;28;1666;-75
2023/01/17 08:16:44;;;;;;;;;;;;;;;21.09;28.44;96915.88;5072329;28;1473;-74
2023/01/17 08:19:10;;;;;;;;;;;;;;;21.10;28.22;96923.09;5072947;28;1569;-74
2023/01/17 08:21:35;;;;;;;;;;;;;;;21.32;28.08;96918.13;5073544;28;957;-74
2023/01/17 08:24:01;;;;;;;;;;;;;;;20.97;28.19;96930.91;5073305;28;933;-74
2023/01/17 08:26:26;;;;;;;;;;;;;;;20.85;28.28;96928.97;5073197;28;1070;-75
2023/01/17 08:28:55;;;;;;;;;;;;;;;20.68;28.71;96915.09;5075491;28;935;-75
2023/01/17 08:31:21;;;;;;;;;;;;;;;21.02;28.26;96905.63;5073222;28;1970;-74
2023/01/17 08:33:46;;;;;;;;;;;;;;;21.05;28.52;96910.34;5074349;28;923;-75
2023/01/17 08:36:12;;;;;;;;;;;;;;;21.07;28.18;96890.06;5075868;28;931;-75
2023/01/17 08:38:37;;;;;;;;;;;;;;;21.02;28.26;96888.66;5073951;28;1481;-74
2023/01/17 08:41:02;;;;;;;;;;;;;;;20.88;28.52;96906.22;5075277;28;980;-75
2023/01/17 08:43:28;;;;;;;;;;;;;;;20.49;29.08;96899.31;5075789;28;959;-74
2023/01/17 08:45:55;;;;;;;;;;;;;;;20.84;28.86;96910.44;5075391;28;957;-74
2023/01/17 08:48:23;;;;;;;;;;;;;;;21.03;28.60;96909.22;5075515;28;922;-74
2023/01/17 08:50:48;;;;;;;;;;;;;;;21.28;27.91;96896.88;5074504;28;1906;-75
2023/01/17 08:53:14;;;;;;;;;;;;;;;21.20;27.96;96899.22;5077201;28;1596;-75
2023/01/17 08:55:40;;;;;;;;;;;;;;;20.92;28.59;96908.88;5078038;28;999;-74
2023/01/17 08:58:06;;;;;;;;;;;;;;;20.85;28.62;96900.72;5077816;28;950;-74
2023/01/17 09:00:31;;;;;;;;;;;;;;;20.80;29.05;96894.41;5078761;28;864;-75
2023/01/17 09:02:57;;;;;;;;;;;;;;;20.94;28.59;96880.94;5078892;28;961;-75
2023/01/17 09:05:23;;;;;;;;;;;;;;;21.02;28.62;96882.22;5078903;28;916;-74
2023/01/17 09:07:48;;;;;;;;;;;;;;;21.38;27.73;96873.00;5078224;28;1655;-74
2023/01/17 09:10:14;;;;;;;;;;;;;;;21.03;28.13;96869.63;5078512;28;1049;-74
2023/01/17 09:12:39;;;;;;;;;;;;;;;21.07;28.08;96861.78;5078244;28;1890;-74
2023/01/17 09:15:05;;;;;;;;;;;;;;;20.70;28.94;96850.41;5078962;28;941;-74
2023/01/17 09:17:30;;;;;;;;;;;;;;;20.93;28.63;96846.19;5078432;28;929;-75
2023/01/17 09:19:58;;;;;;;;;;;;;;;20.86;28.92;96834.41;5078547;28;1095;-75
2023/01/17 09:22:24;;;;;;;;;;;;;;;20.98;28.60;96833.50;5078808;28;996;-74
2023/01/17 09:24:49;;;;;;;;;;;;;;;21.03;28.26;96832.88;5078445;28;908;-75
2023/01/17 09:27:15;;;;;;;;;;;;;;;20.70;29.00;96815.69;5077651;28;1385;-74
2023/01/17 09:29:40;;;;;;;;;;;;;;;20.96;28.49;96821.88;5058302;28;948;-74
2023/01/17 09:32:06;;;;;;;;;;;;;;;20.91;28.64;96819.66;5057441;28;1906;-74
2023/01/17 09:34:31;;;;;;;;;;;;;;;21.11;28.32;96822.84;5058537;28;991;-74
2023/01/17 09:36:56;;;;;;;;;;;;;;;21.03;28.68;96849.84;5058278;28;934;-75
2023/01/17 09:39:22;;;;;;;;;;;;;;;21.24;28.12;96840.47;5073535;28;1551;-75
2023/01/17 09:41:51;;;;;;;;;;;;;;;21.02;28.37;96848.28;5077473;28;1929;-75
2023/01/17 09:44:23;;;;;;;;;;;;;;;20.91;28.76;96845.91;5078002;28;994;-74
2023/01/17 09:46:49;;;;;;;;;;;;;;;20.91;28.62;96848.72;5076841;28;946;-74
2023/01/17 09:49:18;;;;;;;;;;;;;;;20.79;29.07;96849.66;5076683;28;933;-75
2023/01/17 09:51:44;;;;;;;;;;;;;;;21.02;28.48;96853.94;5078072;28;1977;-74
2023/01/17 09:54:17;;;;;;;;;;;;;;;21.09;28.49;96859.31;5077780;28;924;-75
2023/01/17 09:56:43;;;;;;;;;;;;;;;21.16;28.35;96864.63;5076233;28;1544;-74
2023/01/17 09:59:09;;;;;;;;;;;;;;;21.11;28.20;96867.31;5078024;28;936;-74
2023/01/17 10:01:56;;;;;;;;;;;;;;;20.93;28.61;96851.06;5077019;28;883;-74
2023/01/17 10:04:24;;;;;;;;;;;;;;;20.73;28.86;96860.78;5076510;28;958;-74
2023/01/17 10:06:54;;;;;;;;;;;;;;;21.03;28.51;96855.50;5077807;28;977;-75
2023/01/17 10:09:22;;;;;;;;;;;;;;;21.12;28.49;96847.03;5076547;28;1071;-74
2023/01/17 10:11:52;;;;;;;;;;;;;;;21.48;27.93;96840.63;5076001;28;1922;-75
2023/01/17 10:14:36;;;;;;;;;;;;;;;21.02;28.34;96843.41;5076163;28;911;-75
2023/01/17 10:17:06;;;;;;;;;;;;;;;20.68;29.20;96844.44;5076824;28;2083;-74
2023/01/17 10:19:38;;;;;;;;;;;;;;;20.93;28.77;96840.53;5093067;28;1038;-75
2023/01/17 10:22:16;;;;;;;;;;;;;;;21.06;28.44;96831.94;5093276;28;943;-74
2023/01/17 10:25:00;;;;;;;;;;;;;;;21.18;28.52;96822.50;5077576;28;946;-74
2023/01/17 10:28:02;;;;;;;;;;;;;;;21.08;28.40;96823.75;5076322;28;1736;-74
2023/01/17 10:30:37;;;;;;;;;;;;;;;20.65;29.42;96831.22;5038029;28;1902;-74
2023/01/17 10:33:03;;;;;;;;;;;;;;;20.69;29.01;96814.91;5054802;28;970;-74
2023/01/17 10:35:29;;;;;;;;;;;;;;;21.14;28.53;96827.56;5054703;28;1059;-74
2023/01/17 10:37:55;;;;;;;;;;;;;;;20.95;28.76;96823.91;5054671;28;939;-74
2023/01/17 10:40:23;;;;;;;;;;;;;;;20.98;28.70;96830.66;5054817;28;986;-74
2023/01/17 10:42:49;;;;;;;;;;;;;;;21.10;28.45;96824.09;5053883;28;1494;-74
2023/01/17 10:45:16;;;;;;;;;;;;;;;20.91;28.84;96819.66;5054472;28;916;-74
2023/01/17 10:47:43;;;;;;;;;;;;;;;21.15;28.19;96823.47;5054627;28;993;-74
2023/01/17 10:50:10;;;;;;;;;;;;;;;20.93;28.64;96834.09;5054465;28;972;-74
2023/01/17 10:53:11;;;;;;;;;;;;;;;21.10;28.38;96826.16;5054434;28;1910;-74
2023/01/17 10:55:39;;;;;;;;;;;;;;;21.21;28.28;96824.41;4995030;28;993;-74
2023/01/17 10:58:07;;;;;;;;;;;;;;;21.28;28.23;96815.59;4994489;28;1550;-74
2023/01/17 11:00:46;;;;;;;;;;;;;;;20.92;28.70;96819.19;4994926;28;967;-75
2023/01/17 11:03:13;;;;;;;;;;;;;;;20.81;28.89;96825.28;4995188;28;985;-74
2023/01/17 11:05:39;;;;;;;;;;;;;;;20.70;29.50;96816.47;4998434;28;948;-74
2023/01/17 11:08:06;;;;;;;;;;;;;;;21.01;28.72;96824.06;5014393;28;1057;-75
2023/01/17 11:10:41;;;;;;;;;;;;;;;21.27;28.45;96819.69;4998161;28;1983;-74
2023/01/17 11:13:25;;;;;;;;;;;;;;;21.64;27.92;96819.69;4997042;28;1427;-74
2023/01/17 11:15:52;;;;;;;;;;;;;;;20.97;28.60;96818.56;5014267;28;978;-74
2023/01/17 11:18:18;;;;;;;;;;;;;;;20.71;29.10;96811.63;4981692;28;1092;-75
2023/01/17 11:20:43;;;;;;;;;;;;;;;20.75;29.17;96807.38;4998042;28;1044;-74
2023/01/17 11:23:15;;;;;;;;;;;;;;;21.11;28.43;96816.41;4997832;28;1016;-75
2023/01/17 11:25:50;;;;;;;;;;;;;;;21.29;28.37;96817.16;4997370;28;1531;-75
2023/01/17 11:28:20;;;;;;;;;;;;;;;21.28;28.10;96812.78;5013424;28;1487;-74
2023/01/17 11:30:54;;;;;;;;;;;;;;;21.24;28.22;96820.66;5073824;28;1906;-74
2023/01/17 11:33:25;;;;;;;;;;;;;;;21.02;28.63;96814.34;5076114;28;875;-75
2023/01/17 11:35:51;;;;;;;;;;;;;;;20.80;28.90;96815.25;5075250;28;1591;-74
2023/01/17 11:38:16;;;;;;;;;;;;;;;21.38;28.32;96796.63;5075975;28;953;-71
2023/01/17 11:40:42;;;;;;;;;;;;;;;21.75;27.99;96797.34;5076111;28;951;-71
2023/01/17 11:43:11;;;;;;;;;;;;;;;21.44;28.73;96799.59;5074708;28;1021;-70
2023/01/17 11:45:40;;;;;;;;;;;;;;;21.40;28.98;96782.78;5074981;28;1552;-71
2023/01/17 11:48:09;;;;;;;;;;;;;;;21.37;29.07;96788.59;5075848;28;1024;-71
2023/01/17 11:50:36;;;;;;;;;;;;;;;21.98;28.68;96797.94;5076033;28;1985;-77
2023/01/17 11:53:20;;;;;;;;;;;;;;;21.18;29.91;96799.88;5075301;28;890;-76
2023/01/17 11:55:52;;;;;;;;;;;;;;;21.27;29.39;96802.72;5075751;28;899;-76
2023/01/17 11:58:18;;;;;;;;;;;;;;;20.97;30.13;96807.25;5091280;28;941;-76
2023/01/17 12:00:44;;;;;;;;;;;;;;;20.96;30.18;96802.06;5075058;28;1517;-77
2023/01/17 12:03:10;;;;;;;;;;;;;;;21.05;29.83;96796.44;5091472;28;928;-77
2023/01/17 12:05:50;;;;;;;;;;;;;;;20.97;29.91;96795.94;5076034;28;958;-78
2023/01/17 12:08:15;;;;;;;;;;;;;;;20.98;29.88;96785.41;5075712;28;1168;-77
2023/01/17 12:10:55;;;;;;;;;;;;;;;21.06;29.61;96779.00;5075683;28;1918;-78
2023/01/17 12:16:42;;;;;;;;;;;;;;;21.33;29.71;96783.88;5075140;28;1572;-78
2023/01/17 12:19:10;;;;;;;;;;;;;;;21.73;28.67;96771.56;5076430;28;966;-79
2023/01/17 12:21:36;;;;;;;;;;;;;;;21.32;29.63;96787.97;5074206;28;1001;-79
2023/01/17 12:24:07;;;;;;;;;;;;;;;20.96;30.26;96788.72;5075602;28;910;-78
2023/01/17 12:26:37;;;;;;;;;;;;;;;20.93;29.98;96771.91;5078225;28;968;-79
2023/01/17 12:29:38;;;;;;;;;;;;;;;21.18;29.79;96794.22;5079095;28;864;-78
2023/01/17 12:32:09;;;;;;;;;;;;;;;21.38;29.40;96790.16;5037980;28;1918;-78
2023/01/17 12:34:46;;;;;;;;;;;;;;;21.53;29.03;96785.44;5037665;28;989;-79
2023/01/17 12:37:11;;;;;;;;;;;;;;;21.07;29.39;96788.25;5021298;28;867;-78
2023/01/17 12:39:42;;;;;;;;;;;;;;;21.21;29.22;96789.69;5037146;28;999;-79
2023/01/17 12:42:08;;;;;;;;;;;;;;;21.00;29.67;96783.72;5020958;28;1013;-79
2023/01/17 12:44:38;;;;;;;;;;;;;;;21.14;29.48;96787.97;5021128;28;1486;-78
2023/01/17 12:47:04;;;;;;;;;;;;;;;21.55;28.69;96785.75;5037461;28;1013;-79
2023/01/17 12:49:43;;;;;;;;;;;;;;;21.50;28.81;96786.38;5037214;28;923;-78
2023/01/17 12:52:28;;;;;;;;;;;;;;;21.07;29.53;96783.38;5036969;28;1902;-79
2023/01/17 12:54:55;;;;;;;;;;;;;;;21.13;29.16;96785.59;4958699;29;1006;-78
2023/01/17 12:57:22;;;;;;;;;;;;;;;21.07;29.46;96783.38;4959361;29;1185;-79
2023/01/17 12:59:50;;;;;;;;;;;;;;;21.21;29.21;96784.81;4958032;29;1358;-78
2023/01/17 13:02:32;;;;;;;;;;;;;;;21.51;28.75;96790.81;4958795;29;926;-78
2023/01/17 13:05:01;;;;;;;;;;;;;;;21.44;28.98;96793.94;4959861;28;1009;-79
2023/01/17 13:07:26;;;;;;;;;;;;;;;21.24;29.02;96786.72;4978513;28;1223;-78
2023/01/17 13:09:52;;;;;;;;;;;;;;;20.96;29.63;96788.72;4977856;28;916;-79
2023/01/17 13:12:18;;;;;;;;;;;;;;;21.16;29.15;96791.09;4978156;28;1979;-79
2023/01/17 13:14:46;;;;;;;;;;;;;;;21.19;29.10;96801.47;4983978;28;1889;-79
2023/01/17 13:17:23;;;;;;;;;;;;;;;21.32;28.92;96799.28;4997410;28;981;-79
2023/01/17 13:19:48;;;;;;;;;;;;;;;21.46;28.77;96803.53;4997120;28;1000;-79
2023/01/17 13:22:18;;;;;;;;;;;;;;;21.29;29.05;96799.41;4997657;28;1004;-79
2023/01/17 13:25:02;;;;;;;;;;;;;;;21.06;29.09;96800.84;4997482;28;1021;-78
2023/01/17 13:28:06;;;;;;;;;;;;;;;21.17;28.81;96787.00;4997152;28;1086;-78
2023/01/17 13:30:31;;;;;;;;;;;;;;;20.97;29.15;96781.03;4976405;28;1977;-78
2023/01/17 13:33:17;;;;;;;;;;;;;;;21.24;29.24;96781.06;5048171;28;1010;-78
2023/01/17 13:35:51;;;;;;;;;;;;;;;21.50;28.53;96772.22;4999866;28;1024;-78
2023/01/17 13:38:32;;;;;;;;;;;;;;;21.38;28.59;96768.31;5016206;28;1048;-78
2023/01/17 13:41:02;;;;;;;;;;;;;;;21.02;29.35;96780.41;5016376;28;1046;-78
2023/01/17 13:43:29;;;;;;;;;;;;;;;21.02;29.15;96791.72;5000185;28;924;-78
2023/01/17 13:45:55;;;;;;;;;;;;;;;20.93;29.63;96777.56;4999305;28;1472;-79
2023/01/17 13:48:21;;;;;;;;;;;;;;;21.25;28.79;96782.63;4998073;28;1457;-79
2023/01/17 13:50:47;;;;;;;;;;;;;;;21.27;28.94;96791.41;5016415;28;1898;-79
2023/01/17 13:53:31;;;;;;;;;;;;;;;21.58;28.20;96798.97;5000196;28;962;-78
2023/01/17 13:55:58;;;;;;;;;;;;;;;21.00;29.14;96797.06;5016080;28;977;-79
2023/01/17 13:58:27;;;;;;;;;;;;;;;20.96;29.22;96810.56;5015849;28;997;-78
2023/01/17 14:00:53;;;;;;;;;;;;;;;20.97;29.02;96800.81;5006741;28;1023;-79
2023/01/17 14:03:37;;;;;;;;;;;;;;;21.28;28.86;96792.97;5035223;28;1483;-79
2023/01/17 14:06:02;;;;;;;;;;;;;;;21.23;29.01;96802.09;5045551;28;949;-79
2023/01/17 14:08:28;;;;;;;;;;;;;;;21.39;28.54;96797.41;5077941;28;1255;-78
2023/01/17 14:10:54;;;;;;;;;;;;;;;21.07;29.00;96811.66;5077702;28;1988;-79
2023/01/17 14:13:38;;;;;;;;;;;;;;;21.01;29.14;96818.41;5077639;28;953;-78
2023/01/17 14:16:23;;;;;;;;;;;;;;;21.45;28.59;96815.31;5078209;28;1010;-78
2023/01/17 14:18:49;;;;;;;;;;;;;;;21.60;28.45;96807.75;5077407;28;1024;-79
2023/01/17 14:21:21;;;;;;;;;;;;;;;21.37;28.51;96812.03;5076730;28;1012;-79
2023/01/17 14:23:46;;;;;;;;;;;;;;;21.28;28.43;96809.16;5077468;28;996;-78
2023/01/17 14:26:15;;;;;;;;;;;;;;;21.28;28.59;96809.94;5077867;28;971;-78
2023/01/17 14:28:40;;;;;;;;;;;;;;;20.93;29.23;96817.94;5076158;28;919;-79